createdAt,value
2022-11-25T00:01:46.741Z,4.60
2022-11-25T00:04:14.339Z,4.60
2022-11-25T00:06:41.137Z,4.70
2022-11-25T00:09:11.803Z,4.60
2022-11-25T00:11:44.880Z,4.70
2022-11-25T00:14:14.603Z,4.60
2022-11-25T00:16:46.494Z,4.70
2022-11-25T00:19:22.322Z,4.50
2022-11-25T00:21:49.134Z,4.40
2022-11-25T00:24:19.506Z,4.30
2022-11-25T00:26:46.310Z,4.30
2022-11-25T00:29:14.269Z,4.20
2022-11-25T00:31:41.374Z,4.10
2022-11-25T00:34:12.590Z,4.00
2022-11-25T00:36:39.928Z,4.00
2022-11-25T00:39:12.597Z,3.90
2022-11-25T00:42:14.192Z,3.80
2022-11-25T00:44:41.681Z,3.90
2022-11-25T00:47:17.592Z,3.90
2022-11-25T00:49:46.932Z,4.00
2022-11-25T00:52:16.643Z,4.10
2022-11-25T00:54:45.000Z,4.20
2022-11-25T00:57:12.689Z,4.30
2022-11-25T00:59:39.655Z,4.30
2022-11-25T01:02:07.050Z,4.30
2022-11-25T01:04:34.543Z,4.40
2022-11-25T01:07:02.295Z,4.40
2022-11-25T01:09:29.456Z,4.40
2022-11-25T01:11:58.561Z,4.40
2022-11-25T01:14:25.838Z,4.40
2022-11-25T01:17:33.503Z,4.40
2022-11-25T01:20:00.331Z,4.50
2022-11-25T01:22:27.102Z,4.50
2022-11-25T01:24:53.870Z,4.40
2022-11-25T01:27:21.879Z,4.40
2022-11-25T01:29:48.855Z,4.40
2022-11-25T01:32:15.773Z,4.40
2022-11-25T01:34:42.822Z,4.40
2022-11-25T01:37:10.042Z,4.40
2022-11-25T01:39:40.926Z,4.40
2022-11-25T01:42:16.459Z,4.40
2022-11-25T01:45:08.628Z,4.30
2022-11-25T01:47:35.493Z,4.30
2022-11-25T01:50:06.657Z,4.20
2022-11-25T01:52:39.240Z,4.20
2022-11-25T01:55:09.486Z,4.10
2022-11-25T01:57:48.635Z,4.10
2022-11-25T02:00:59.944Z,4.00
2022-11-25T02:03:34.795Z,3.90
2022-11-25T02:06:10.599Z,3.90
2022-11-25T02:08:38.760Z,4.00
2022-11-25T02:11:05.907Z,4.00
2022-11-25T02:13:33.562Z,4.10
2022-11-25T02:16:00.329Z,4.20
2022-11-25T02:18:27.974Z,4.10
2022-11-25T02:20:54.838Z,4.20
2022-11-25T02:23:39.800Z,4.20
2022-11-25T02:26:06.677Z,4.10
2022-11-25T02:28:34.785Z,4.10
2022-11-25T02:31:01.566Z,4.10
2022-11-25T02:33:28.660Z,4.10
2022-11-25T02:36:00.865Z,4.00
2022-11-25T02:38:39.484Z,4.00
2022-11-25T02:41:08.804Z,4.00
2022-11-25T02:43:44.436Z,3.90
2022-11-25T02:46:22.987Z,3.90
2022-11-25T02:51:41.184Z,3.80
2022-11-25T02:54:08.230Z,3.80
2022-11-25T02:56:37.174Z,3.80
2022-11-25T02:59:05.133Z,3.80
2022-11-25T03:01:32.808Z,3.80
2022-11-25T03:03:59.845Z,3.80
2022-11-25T03:06:26.782Z,3.80
2022-11-25T03:08:53.639Z,3.80
2022-11-25T03:11:20.505Z,3.80
2022-11-25T03:13:47.728Z,3.80
2022-11-25T03:16:14.628Z,3.80
2022-11-25T03:18:41.431Z,3.80
2022-11-25T03:21:08.508Z,3.80
2022-11-25T03:23:35.301Z,3.80
2022-11-25T03:26:06.860Z,3.80
2022-11-25T03:28:33.600Z,3.80
2022-11-25T03:31:00.363Z,3.90
2022-11-25T03:33:35.736Z,3.90
2022-11-25T03:36:02.566Z,3.90
2022-11-25T03:38:29.297Z,3.80
2022-11-25T03:40:56.094Z,3.80
2022-11-25T03:43:22.828Z,3.80
2022-11-25T03:45:50.334Z,3.80
2022-11-25T03:48:17.176Z,3.80
2022-11-25T03:50:43.920Z,3.80
2022-11-25T03:53:10.674Z,3.80
2022-11-25T03:55:37.541Z,3.80
2022-11-25T03:58:04.304Z,3.80
2022-11-25T04:00:33.473Z,3.80
2022-11-25T04:03:00.218Z,3.80
2022-11-25T04:05:27.030Z,3.80
2022-11-25T04:07:57.902Z,3.80
2022-11-25T04:10:25.043Z,3.80
2022-11-25T04:12:52.520Z,3.80
2022-11-25T04:15:20.014Z,3.70
2022-11-25T04:17:46.796Z,3.70
2022-11-25T04:20:14.336Z,3.70
2022-11-25T04:22:41.528Z,3.70
2022-11-25T04:25:09.614Z,3.60
2022-11-25T04:27:36.538Z,3.60
2022-11-25T04:30:03.643Z,3.60
2022-11-25T04:32:30.441Z,3.60
2022-11-25T04:34:57.190Z,3.60
2022-11-25T04:37:23.939Z,3.60
2022-11-25T04:39:50.806Z,3.60
2022-11-25T04:42:33.309Z,3.60
2022-11-25T04:45:21.929Z,3.50
2022-11-25T04:47:49.136Z,3.60
2022-11-25T04:50:18.849Z,3.60
2022-11-25T04:52:45.629Z,3.70
2022-11-25T04:55:12.418Z,3.70
2022-11-25T04:57:39.336Z,3.60
2022-11-25T05:00:06.860Z,3.70
2022-11-25T05:02:33.702Z,3.70
2022-11-25T05:05:00.465Z,3.70
2022-11-25T05:07:28.680Z,3.70
2022-11-25T05:09:55.801Z,3.70
2022-11-25T05:12:26.209Z,3.70
2022-11-25T05:14:53.414Z,3.70
2022-11-25T05:17:23.127Z,3.70
2022-11-25T05:19:50.738Z,3.60
2022-11-25T05:22:20.143Z,3.60
2022-11-25T05:24:47.158Z,3.60
2022-11-25T05:27:14.977Z,3.60
2022-11-25T05:29:41.819Z,3.60
2022-11-25T05:32:09.133Z,3.60
2022-11-25T05:34:36.556Z,3.60
2022-11-25T05:37:03.677Z,3.60
2022-11-25T05:39:30.828Z,3.70
2022-11-25T05:41:57.586Z,3.70
2022-11-25T05:44:24.388Z,3.70
2022-11-25T05:46:51.426Z,3.80
2022-11-25T05:49:19.542Z,3.90
2022-11-25T05:52:02.709Z,3.90
2022-11-25T05:54:29.425Z,3.90
2022-11-25T05:56:56.254Z,3.90
2022-11-25T05:59:23.161Z,3.90
2022-11-25T06:01:52.441Z,4.00
2022-11-25T06:04:19.242Z,4.10
2022-11-25T06:06:46.268Z,4.10
2022-11-25T06:09:13.312Z,4.10
2022-11-25T06:11:40.051Z,4.10
2022-11-25T06:14:06.907Z,4.10
2022-11-25T06:16:33.781Z,4.10
2022-11-25T06:19:05.589Z,4.10
2022-11-25T06:21:33.120Z,4.10
2022-11-25T06:23:59.935Z,4.10
2022-11-25T06:26:26.809Z,4.00
2022-11-25T06:28:55.149Z,4.00
2022-11-25T06:31:24.486Z,3.90
2022-11-25T06:33:52.760Z,3.90
2022-11-25T06:36:45.676Z,3.90
2022-11-25T06:39:18.312Z,3.90
2022-11-25T06:48:51.504Z,3.90
2022-11-25T06:51:18.858Z,3.80
2022-11-25T06:53:46.046Z,3.90
2022-11-25T06:56:21.766Z,4.00
2022-11-25T06:58:49.223Z,4.00
2022-11-25T07:01:19.509Z,4.10
2022-11-25T07:03:48.066Z,4.20
2022-11-25T07:06:19.380Z,4.30
2022-11-25T07:08:46.562Z,4.30
2022-11-25T07:11:20.850Z,4.40
2022-11-25T07:13:48.128Z,4.40
2022-11-25T07:16:15.392Z,4.40
2022-11-25T07:18:43.030Z,4.50
2022-11-25T07:21:16.472Z,4.50
2022-11-25T07:23:44.867Z,4.50
2022-11-25T07:26:14.325Z,4.60
2022-11-25T07:28:41.402Z,4.60
2022-11-25T07:31:31.306Z,4.60
2022-11-25T07:34:01.688Z,4.70
2022-11-25T07:36:29.558Z,4.80
2022-11-25T07:38:58.802Z,4.80
2022-11-25T07:41:32.366Z,4.80
2022-11-25T07:44:03.071Z,4.90
2022-11-25T07:46:36.097Z,4.90
2022-11-25T07:49:09.293Z,4.90
2022-11-25T07:51:38.576Z,4.90
2022-11-25T07:54:08.066Z,4.90
2022-11-25T07:56:39.668Z,5.00
2022-11-25T07:59:16.152Z,5.00
2022-11-25T08:01:43.922Z,5.00
2022-11-25T08:04:16.600Z,5.00
2022-11-25T08:06:49.314Z,5.00
2022-11-25T08:09:19.471Z,5.00
2022-11-25T08:11:47.351Z,5.10
2022-11-25T08:14:14.807Z,5.10
2022-11-25T08:16:42.353Z,5.10
2022-11-25T08:19:13.977Z,5.20
2022-11-25T08:21:41.861Z,5.20
2022-11-25T08:24:19.863Z,5.30
2022-11-25T08:26:47.251Z,5.30
2022-11-25T08:29:16.273Z,5.30
2022-11-25T08:31:43.655Z,5.30
2022-11-25T08:34:20.768Z,5.30
2022-11-25T08:36:48.849Z,5.40
2022-11-25T08:42:05.727Z,5.50
2022-11-25T08:44:32.539Z,5.60
2022-11-25T08:46:59.414Z,5.60
2022-11-25T08:49:27.060Z,5.70
2022-11-25T08:51:53.884Z,5.70
2022-11-25T08:54:20.762Z,5.80
2022-11-25T08:56:47.801Z,5.80
2022-11-25T08:59:14.651Z,5.80
2022-11-25T09:01:41.478Z,5.80
2022-11-25T09:04:08.305Z,5.80
2022-11-25T09:06:35.172Z,5.80
2022-11-25T09:09:02.033Z,5.90
2022-11-25T09:11:29.589Z,5.90
2022-11-25T09:13:56.559Z,5.90
2022-11-25T09:16:25.785Z,5.90
2022-11-25T09:18:56.013Z,6.00
2022-11-25T09:21:25.325Z,6.00
2022-11-25T09:23:54.842Z,6.00
2022-11-25T09:26:25.326Z,6.00
2022-11-25T09:28:53.187Z,6.10
2022-11-25T09:31:21.888Z,6.10
2022-11-25T09:33:49.483Z,6.10
2022-11-25T09:36:18.618Z,6.20
2022-11-25T09:38:46.066Z,6.20
2022-11-25T09:41:53.915Z,6.20
2022-11-25T09:45:05.606Z,6.30
2022-11-25T09:48:10.729Z,6.30
2022-11-25T09:50:59.609Z,6.30
2022-11-25T09:53:53.443Z,6.30
2022-11-25T09:56:42.984Z,6.40
2022-11-25T09:59:29.617Z,6.40
2022-11-25T10:02:01.458Z,6.40
2022-11-25T10:05:00.264Z,6.40
2022-11-25T10:07:39.954Z,6.40
2022-11-25T10:10:28.958Z,6.50
2022-11-25T10:12:58.161Z,6.50
2022-11-25T10:15:32.675Z,6.50
2022-11-25T10:18:18.357Z,6.60
2022-11-25T10:20:49.377Z,6.60
2022-11-25T10:23:28.151Z,6.60
2022-11-25T10:26:02.850Z,6.70
2022-11-25T10:28:34.378Z,6.70
2022-11-25T10:31:18.269Z,6.70
2022-11-25T10:33:46.322Z,6.70
2022-11-25T10:36:23.977Z,6.70
2022-11-25T10:39:07.364Z,6.80
2022-11-25T10:42:01.958Z,6.70
2022-11-25T10:44:40.214Z,6.80
2022-11-25T10:47:30.481Z,6.80
2022-11-25T10:50:15.960Z,6.80
2022-11-25T10:53:02.479Z,6.80
2022-11-25T10:55:32.010Z,6.80
2022-11-25T10:58:19.435Z,6.80
2022-11-25T11:00:46.281Z,6.80
2022-11-25T11:03:16.101Z,6.90
2022-11-25T11:05:49.559Z,6.90
2022-11-25T11:08:45.893Z,6.90
2022-11-25T11:11:21.789Z,6.90
2022-11-25T11:13:50.646Z,7.00
2022-11-25T11:16:31.942Z,7.00
2022-11-25T11:18:59.037Z,7.00
2022-11-25T11:21:35.533Z,7.10
2022-11-25T11:24:04.877Z,7.20
2022-11-25T11:26:34.771Z,7.20
2022-11-25T11:29:14.377Z,7.20
2022-11-25T11:31:48.545Z,7.30
2022-11-25T11:34:38.366Z,7.30
2022-11-25T11:37:32.143Z,7.40
2022-11-25T11:40:16.662Z,7.40
2022-11-25T11:43:34.550Z,7.40
2022-11-25T11:46:12.006Z,7.40
2022-11-25T11:48:58.599Z,7.40
2022-11-25T11:51:38.676Z,7.40
2022-11-25T11:54:14.710Z,7.40
2022-11-25T11:56:55.303Z,7.40
2022-11-25T11:59:46.850Z,7.40
2022-11-25T12:02:28.769Z,7.50
2022-11-25T12:05:11.462Z,7.50
2022-11-25T12:07:47.088Z,7.60
2022-11-25T12:10:36.637Z,7.60
2022-11-25T12:13:32.689Z,7.60
2022-11-25T12:16:07.977Z,7.70
2022-11-25T12:19:12.995Z,7.70
2022-11-25T12:21:51.747Z,7.70
2022-11-25T12:24:46.525Z,7.70
2022-11-25T12:27:31.450Z,7.80
2022-11-25T12:30:10.224Z,7.80
2022-11-25T12:32:53.460Z,7.80
2022-11-25T12:35:35.224Z,7.80
2022-11-25T12:38:12.546Z,7.80
2022-11-25T12:40:58.702Z,7.80
2022-11-25T12:43:25.491Z,7.80
2022-11-25T12:46:03.391Z,7.80
2022-11-25T12:48:30.973Z,7.70
2022-11-25T12:51:08.178Z,7.70
2022-11-25T12:53:45.306Z,7.70
2022-11-25T12:56:24.937Z,7.80
2022-11-25T12:59:18.450Z,7.80
2022-11-25T13:01:55.330Z,7.80
2022-11-25T13:04:50.449Z,7.80
2022-11-25T13:07:35.743Z,7.80
2022-11-25T13:10:11.622Z,7.90
2022-11-25T13:13:14.721Z,7.90
2022-11-25T13:15:46.876Z,7.90
2022-11-25T13:18:18.471Z,8.00
2022-11-25T13:20:51.389Z,8.00
2022-11-25T13:23:18.142Z,8.00
2022-11-25T13:25:47.382Z,8.00
2022-11-25T13:28:29.390Z,8.00
2022-11-25T13:31:16.650Z,8.10
2022-11-25T13:33:43.492Z,8.10
2022-11-25T13:36:18.152Z,8.10
2022-11-25T13:38:51.023Z,8.20
2022-11-25T13:41:21.212Z,8.20
2022-11-25T13:43:53.965Z,8.20
2022-11-25T13:46:37.586Z,8.20
2022-11-25T13:49:07.247Z,8.20
2022-11-25T13:51:34.264Z,8.20
2022-11-25T13:54:05.218Z,8.20
2022-11-25T13:56:32.993Z,8.10
2022-11-25T13:59:12.065Z,8.10
2022-11-25T14:01:39.802Z,8.10
2022-11-25T14:04:13.784Z,8.10
2022-11-25T14:06:57.455Z,8.10
2022-11-25T14:10:01.860Z,8.10
2022-11-25T14:13:04.672Z,8.10
2022-11-25T14:15:48.224Z,8.10
2022-11-25T14:19:17.300Z,8.10
2022-11-25T14:21:52.707Z,8.10
2022-11-25T14:24:41.057Z,8.10
2022-11-25T14:27:17.063Z,8.10
2022-11-25T14:29:56.529Z,8.10
2022-11-25T14:32:26.195Z,8.10
2022-11-25T14:35:03.656Z,8.00
2022-11-25T14:37:44.468Z,8.00
2022-11-25T14:40:40.873Z,8.00
2022-11-25T14:43:19.959Z,8.00
2022-11-25T14:48:28.940Z,7.90
2022-11-25T14:51:07.702Z,7.90
2022-11-25T14:53:47.315Z,7.90
2022-11-25T14:56:16.878Z,8.00
2022-11-25T14:58:49.382Z,8.00
2022-11-25T15:01:35.988Z,7.90
2022-11-25T15:04:20.839Z,7.90
2022-11-25T15:07:00.715Z,7.90
2022-11-25T15:09:31.725Z,7.90
2022-11-25T15:11:59.825Z,7.90
2022-11-25T15:14:31.825Z,7.90
2022-11-25T15:16:59.622Z,7.90
2022-11-25T15:19:33.686Z,7.90
2022-11-25T15:24:55.007Z,7.90
2022-11-25T15:27:26.657Z,7.90
2022-11-25T15:29:55.183Z,7.90
2022-11-25T15:32:27.793Z,7.90
2022-11-25T15:34:55.968Z,7.80
2022-11-25T15:37:24.116Z,7.80
2022-11-25T15:40:11.300Z,7.80
2022-11-25T15:42:38.071Z,7.80
2022-11-25T15:45:17.842Z,7.80
2022-11-25T15:47:45.450Z,7.80
2022-11-25T15:50:22.192Z,7.80
2022-11-25T15:52:55.992Z,7.90
2022-11-25T15:55:38.919Z,7.80
2022-11-25T15:58:26.907Z,7.80
2022-11-25T16:01:20.145Z,7.80
2022-11-25T16:03:48.296Z,7.80
2022-11-25T16:06:28.420Z,7.80
2022-11-25T16:08:56.675Z,7.80
2022-11-25T16:11:25.626Z,7.80
2022-11-25T16:13:53.619Z,7.80
2022-11-25T16:16:23.823Z,7.80
2022-11-25T16:18:56.447Z,7.80
2022-11-25T16:21:30.642Z,7.80
2022-11-25T16:24:11.495Z,7.90
2022-11-25T16:26:50.483Z,7.80
2022-11-25T16:29:40.981Z,7.80
2022-11-25T16:32:16.713Z,7.80
2022-11-25T16:34:44.879Z,7.80
2022-11-25T16:37:11.644Z,7.80
2022-11-25T16:39:39.539Z,7.80
2022-11-25T16:42:07.469Z,7.80
2022-11-25T16:44:35.928Z,7.80
2022-11-25T16:47:03.554Z,7.80
2022-11-25T16:49:31.924Z,7.80
2022-11-25T16:51:58.831Z,7.80
2022-11-25T16:54:25.802Z,7.80
2022-11-25T16:56:54.648Z,7.80
2022-11-25T16:59:27.610Z,7.80
2022-11-25T17:01:54.850Z,7.80
2022-11-25T17:04:22.226Z,7.80
2022-11-25T17:07:16.408Z,7.80
2022-11-25T17:09:36.119Z,7.80
2022-11-25T17:12:03.305Z,7.80
2022-11-25T17:14:36.179Z,7.70
2022-11-25T17:17:04.394Z,7.80
2022-11-25T17:19:31.356Z,7.80
2022-11-25T17:21:58.263Z,7.70
2022-11-25T17:24:25.841Z,7.70
2022-11-25T17:26:57.219Z,7.70
2022-11-25T17:29:34.274Z,7.70
2022-11-25T17:32:01.592Z,7.80
2022-11-25T17:34:28.571Z,7.70
2022-11-25T17:36:55.414Z,7.70
2022-11-25T17:39:22.379Z,7.70
2022-11-25T17:41:51.611Z,7.70
2022-11-25T17:44:28.012Z,7.70
2022-11-25T17:46:57.037Z,7.80
2022-11-25T17:49:24.522Z,7.80
2022-11-25T17:51:51.741Z,7.80
2022-11-25T17:54:18.553Z,7.70
2022-11-25T17:56:50.700Z,7.70
2022-11-25T17:59:30.908Z,7.70
2022-11-25T18:02:01.100Z,7.70
2022-11-25T18:04:35.608Z,7.70
2022-11-25T18:07:02.742Z,7.70
2022-11-25T18:09:29.492Z,7.70
2022-11-25T18:12:03.058Z,7.70
2022-11-25T18:14:34.560Z,7.60
2022-11-25T18:17:05.049Z,7.60
2022-11-25T18:19:33.142Z,7.70
2022-11-25T18:22:12.414Z,7.60
2022-11-25T18:24:39.629Z,7.70
2022-11-25T18:27:10.035Z,7.70
2022-11-25T18:29:37.709Z,7.60
2022-11-25T18:32:05.629Z,7.70
2022-11-25T18:34:32.449Z,7.70
2022-11-25T18:36:59.188Z,7.70
2022-11-25T18:39:25.960Z,7.70
2022-11-25T18:41:58.077Z,7.70
2022-11-25T18:44:27.830Z,7.70
2022-11-25T18:46:54.875Z,7.70
2022-11-25T18:49:21.968Z,7.70
2022-11-25T18:51:48.833Z,7.70
2022-11-25T18:54:15.608Z,7.70
2022-11-25T18:56:43.387Z,7.70
2022-11-25T18:59:15.033Z,7.70
2022-11-25T19:01:46.784Z,7.60
2022-11-25T19:04:16.979Z,7.70
2022-11-25T19:06:44.335Z,7.70
2022-11-25T19:09:11.324Z,7.70
2022-11-25T19:11:42.573Z,7.70
2022-11-25T19:14:31.570Z,7.70
2022-11-25T19:17:03.146Z,7.60
2022-11-25T19:19:30.276Z,7.60
2022-11-25T19:21:58.435Z,7.60
2022-11-25T19:24:25.209Z,7.60
2022-11-25T19:26:55.662Z,7.50
2022-11-25T19:29:30.232Z,7.50
2022-11-25T19:31:58.267Z,7.50
2022-11-25T19:34:35.957Z,7.50
2022-11-25T19:37:20.683Z,7.50
2022-11-25T19:39:49.285Z,7.60
2022-11-25T19:42:16.408Z,7.60
2022-11-25T19:44:44.193Z,7.60
2022-11-25T19:47:24.125Z,7.70
2022-11-25T19:49:57.974Z,7.70
2022-11-25T19:52:34.969Z,7.70
2022-11-25T19:55:23.930Z,7.70
2022-11-25T19:57:51.582Z,7.70
2022-11-25T20:12:42.393Z,7.80
2022-11-25T20:15:09.964Z,7.80
2022-11-25T20:17:38.004Z,7.90
2022-11-25T20:20:16.535Z,7.80
2022-11-25T20:23:03.088Z,7.90
2022-11-25T20:25:36.050Z,7.90
2022-11-25T20:28:02.837Z,7.90
2022-11-25T20:30:29.848Z,7.90
2022-11-25T20:32:59.665Z,7.90
2022-11-25T20:35:26.465Z,7.90
2022-11-25T20:38:00.518Z,7.90
2022-11-25T20:40:36.780Z,8.00
2022-11-25T20:43:03.499Z,8.00
2022-11-25T20:45:30.378Z,8.00
2022-11-25T20:47:59.005Z,8.10
2022-11-25T20:50:29.029Z,8.10
2022-11-25T20:52:55.780Z,8.10
2022-11-25T20:55:24.761Z,8.10
2022-11-25T20:57:52.606Z,8.10
2022-11-25T21:00:25.405Z,8.10
2022-11-25T21:02:53.632Z,8.10
2022-11-25T21:05:21.390Z,8.10
2022-11-25T21:07:51.350Z,8.10
2022-11-25T21:10:28.443Z,8.10
2022-11-25T21:12:56.649Z,8.10
2022-11-25T21:15:25.640Z,8.10
2022-11-25T21:17:52.400Z,8.10
2022-11-25T21:20:19.886Z,8.10
2022-11-25T21:22:52.270Z,8.10
2022-11-25T21:25:21.382Z,8.10
2022-11-25T21:27:50.354Z,8.10
2022-11-25T21:30:32.627Z,8.10
2022-11-25T21:33:01.053Z,8.10
2022-11-25T21:35:34.612Z,8.00
2022-11-25T21:38:07.045Z,8.00
2022-11-25T21:40:39.278Z,8.00
2022-11-25T21:43:12.905Z,8.00
2022-11-25T21:45:41.008Z,8.10
2022-11-25T21:48:18.565Z,8.00
2022-11-25T21:50:45.337Z,8.00
2022-11-25T21:53:12.649Z,8.00
2022-11-25T21:55:39.515Z,8.00
2022-11-25T21:58:12.595Z,8.10
2022-11-25T22:00:39.373Z,8.10
2022-11-25T22:03:14.973Z,8.10
2022-11-25T22:05:41.787Z,8.10
2022-11-25T22:08:08.569Z,8.10
2022-11-25T22:10:36.457Z,8.10
2022-11-25T22:13:04.109Z,8.10
2022-11-25T22:15:31.145Z,8.10
2022-11-25T22:17:58.717Z,8.20
2022-11-25T22:20:29.522Z,8.20
2022-11-25T22:22:56.851Z,8.20
2022-11-25T22:25:32.581Z,8.20
2022-11-25T22:27:59.367Z,8.20
2022-11-25T22:30:26.183Z,8.30
2022-11-25T22:33:02.131Z,8.20
2022-11-25T22:35:29.358Z,8.20
2022-11-25T22:37:56.098Z,8.20
2022-11-25T22:40:23.993Z,8.20
2022-11-25T22:42:52.106Z,8.10
2022-11-25T22:45:31.886Z,8.10
2022-11-25T22:48:00.732Z,8.10
2022-11-25T22:50:33.132Z,8.00
2022-11-25T22:53:00.684Z,8.00
2022-11-25T22:55:30.871Z,7.90
2022-11-25T22:57:59.213Z,7.90
2022-11-25T23:00:33.514Z,7.90
2022-11-25T23:03:02.302Z,7.90
2022-11-25T23:05:39.411Z,7.80
2022-11-25T23:08:13.623Z,7.80
2022-11-25T23:10:40.578Z,7.70
2022-11-25T23:13:07.433Z,7.70
2022-11-25T23:15:35.203Z,7.60
2022-11-25T23:18:04.307Z,7.60
2022-11-25T23:20:33.756Z,7.60
2022-11-25T23:23:11.677Z,7.50
2022-11-25T23:25:38.431Z,7.40
2022-11-25T23:28:05.409Z,7.30
2022-11-25T23:30:32.388Z,7.30
2022-11-25T23:32:59.797Z,7.20
2022-11-25T23:35:38.411Z,7.30
2022-11-25T23:38:18.301Z,7.30
2022-11-25T23:40:45.086Z,7.20
2022-11-25T23:43:13.490Z,7.20
2022-11-25T23:45:50.435Z,7.20
2022-11-25T23:48:19.492Z,7.20
2022-11-25T23:50:46.728Z,7.20
2022-11-25T23:53:29.265Z,7.20
2022-11-25T23:55:56.178Z,7.10
2022-11-25T23:58:23.384Z,7.10
